This is the latest recevied weather packets stored in our database for station/object DL1YAU. If no packets are shown the sender has not sent any weather packets the latest 10 day(s).
| Time | Temp. | Humidity | Pressure | Rain* | Wind** | Luminosity | Snow |
|---|---|---|---|---|---|---|---|
| 1778141652 | 7.78° C | 91% | - | 0 mm | - | 142 W/m² | - |
| 1778139252 | 7.22° C | 91% | - | 0 mm | - | 69 W/m² | - |
| 1778136852 | 7.22° C | 91% | - | 0 mm | - | 30 W/m² | - |
| 1778130851 | 7.22° C | 91% | - | 0.51 mm | - | 14 W/m² | - |
| 1778119450 | 7.22° C | 91% | - | 0.51 mm | - | 0 W/m² | - |
| 1778114649 | 7.22° C | 91% | - | 0.25 mm | - | 0 W/m² | - |
| 1778112254 | 7.22° C | 91% | - | 0.25 mm | - | 0 W/m² | - |
| 1778103254 | 7.78° C | 90% | - | 0 mm | - | 0 W/m² | - |
| 1778098452 | 7.78° C | 90% | - | 0 mm | - | 0 W/m² | - |
| 1778097852 | 7.78° C | 90% | - | 0.25 mm | - | 0 W/m² | - |
| 1778095452 | 7.78° C | 90% | - | 0.25 mm | - | 0 W/m² | - |
| 1778093652 | 7.78° C | 89% | - | 0 mm | - | 0 W/m² | - |
| 1778085851 | 8.33° C | 90% | - | 0 mm | - | 33 W/m² | - |
| 1778079250 | 8.89° C | 90% | - | 0 mm | - | 58 W/m² | - |
| 1778076250 | 8.89° C | 90% | - | 0 mm | - | 97 W/m² | - |
| 1778070255 | 9.44° C | 91% | - | 0 mm | - | 69 W/m² | - |
| 1778067254 | 10° C | 92% | - | 0 mm | - | 178 W/m² | - |
| 1778066653 | 10° C | 92% | - | 0 mm | - | 195 W/m² | - |
| 1778064853 | 10° C | 92% | - | 0 mm | - | 230 W/m² | - |
| 1778056452 | 9.44° C | 92% | - | 0.25 mm | - | 155 W/m² | - |
| 1778049252 | 9.44° C | 92% | - | 0.76 mm | - | 44 W/m² | - |
| 1778045051 | 8.89° C | 92% | - | 2.54 mm | - | 21 W/m² | - |
| 1778038450 | 9.44° C | 92% | - | 0.51 mm | - | 0 W/m² | - |
| 1778026454 | 10° C | 91% | - | 1.78 mm | - | 0 W/m² | - |
| 1778006652 | 11.67° C | 89% | - | 0 mm | - | 0 W/m² | - |
* Rain latest hour (hover to see other rain measurements)
** Current wind speed in m/s (hover to see current wind gust speed)